Bella Vita — ZGAG5 — position and weather

sailwx.info

Track history (hours):
 
Tides and Currents Weather Stations Pressure Air Temp Water Temp Dewpoint Dewpoint Depression Visibility Wind Speed Wind Dir Waves Ship Positions

Bella Vita

Last reported at 2015-Aug-28 16:26 UTC. Time now 2015-Aug-30 18:08 UTC.
Position N 41°23' W 070°55'.

Length 45 m; draft 2.5 m.

Type: Pleasure craft. MMSI: 319016600.

Date/timePositionNaut miles runAvg speedWind from/ knotsBaromVisibWave heightAir tempDewpointWater temp
2015-Aug-28 16:26N 41°23' W 070°55'1513.1
2015-Aug-28 15:20N 41°29' W 070°37'27 4.6
2015-Aug-28 09:30N 41°17' W 070°06'0 0.0
2015-Aug-28 08:33N 41°17' W 070°06'0 0.0
2015-Aug-27 11:29N 41°17' W 070°06'0 0.0
2015-Aug-27 10:29N 41°17' W 070°06'0 0.0
2015-Aug-27 09:29N 41°17' W 070°06'0 0.0
2015-Aug-27 08:17N 41°17' W 070°06'0 0.0
2015-Aug-27 07:32N 41°17' W 070°06'0 0.0
2015-Aug-27 06:29N 41°17' W 070°06'0 0.0
2015-Aug-27 05:32N 41°17' W 070°06'0 0.0
2015-Aug-27 04:17N 41°17' W 070°06'0 0.0
2015-Aug-27 03:32N 41°17' W 070°06'0 0.0
2015-Aug-27 02:23N 41°17' W 070°06'0 0.0
2015-Aug-27 00:20N 41°17' W 070°06'0 0.0
2015-Aug-26 23:32N 41°17' W 070°06'0 0.0
2015-Aug-26 22:32N 41°17' W 070°06'0 0.0
2015-Aug-26 20:29N 41°17' W 070°06'0 0.0
2015-Aug-26 19:32N 41°17' W 070°06'0 0.0
2015-Aug-26 18:32N 41°17' W 070°06'0 0.0
2015-Aug-26 17:29N 41°17' W 070°06'0 0.0
2015-Aug-26 16:32N 41°17' W 070°06'0 0.0
2015-Aug-26 15:29N 41°17' W 070°06'0 0.0
2015-Aug-26 14:26N 41°17' W 070°06'0 0.0
2015-Aug-26 01:23N 41°17' W 070°06'0 0.0
2015-Aug-26 00:14N 41°17' W 070°06'0 0.0
2015-Aug-25 23:20N 41°17' W 070°06'0 0.0
2015-Aug-25 22:32N 41°17' W 070°06'0 0.0
2015-Aug-25 21:32N 41°17' W 070°06'0 0.0
2015-Aug-25 20:29N 41°17' W 070°06'0 0.0
2015-Aug-25 19:05N 41°17' W 070°06'0 0.0
2015-Aug-25 18:11N 41°17' W 070°06'0 0.0
2015-Aug-25 17:32N 41°17' W 070°06'0 0.0
2015-Aug-25 16:29N 41°17' W 070°06'0 0.0
2015-Aug-25 15:32N 41°17' W 070°06'0 0.0
2015-Aug-25 14:32N 41°17' W 070°06'0 0.0
2015-Aug-25 13:29N 41°17' W 070°06'0 0.0
2015-Aug-25 12:32N 41°17' W 070°06'0 0.0
2015-Aug-25 11:32N 41°17' W 070°06'0 0.0
2015-Aug-25 10:32N 41°17' W 070°06'0 0.0
2015-Aug-25 09:26N 41°17' W 070°06'0 0.0
2015-Aug-25 08:32N 41°17' W 070°06'0 0.0
2015-Aug-25 04:23N 41°17' W 070°06'0 0.0
2015-Aug-25 03:32N 41°17' W 070°06'0 0.0
2015-Aug-25 02:32N 41°17' W 070°06'0 0.0
2015-Aug-25 01:32N 41°17' W 070°06'0 0.0
2015-Aug-25 00:26N 41°17' W 070°06'0 0.0
2015-Aug-24 23:29N 41°17' W 070°06'0 0.0
2015-Aug-24 22:29N 41°17' W 070°06'0 0.0
2015-Aug-24 21:32N 41°17' W 070°06'0 0.0
2015-Aug-24 20:05N 41°17' W 070°06'0 0.0
2015-Aug-24 17:08N 41°17' W 070°06'0 0.0
2015-Aug-23 18:08N 41°17' W 070°06'0 0.0
2015-Aug-23 17:29N 41°17' W 070°06'0 0.0
2015-Aug-23 12:32N 41°17' W 070°06'0 0.0
2015-Aug-23 09:14N 41°17' W 070°06'0 0.0
2015-Aug-23 08:29N 41°17' W 070°06'0 0.0
2015-Aug-23 07:23N 41°17' W 070°06'0 0.0
2015-Aug-21 08:32N 41°17' W 070°06'0 0.0
2015-Aug-21 05:08N 41°17' W 070°06'0 0.0
2015-Aug-21 04:32N 41°17' W 070°06'0 0.0
2015-Aug-21 03:32N 41°17' W 070°06'0 0.0
2015-Aug-21 02:32N 41°17' W 070°06'0 0.0
2015-Aug-21 01:32N 41°17' W 070°06'0 0.0
2015-Aug-21 00:26N 41°17' W 070°06'0 0.0
2015-Aug-20 23:11N 41°17' W 070°06'0 0.1
2015-Aug-20 22:27N 41°17' W 070°05'910.2
2015-Aug-20 21:33N 41°25' W 070°12'1211.5
2015-Aug-20 20:33N 41°26' W 070°27'3 3.4
2015-Aug-20 19:31N 41°23' W 070°30'0 0.0
2015-Aug-20 18:31N 41°23' W 070°30'0 0.0
2015-Aug-20 17:25N 41°23' W 070°30'0 0.0
2015-Aug-20 16:31N 41°23' W 070°30'0 0.0
2015-Aug-20 15:31N 41°23' W 070°30'0 0.0
2015-Aug-20 14:31N 41°23' W 070°30'0 0.0
2015-Aug-20 13:28N 41°23' W 070°30'38 1.2
2015-Aug-19 05:26N 41°29' W 071°19'0 0.0
2015-Aug-19 04:32N 41°29' W 071°19'0 0.0
2015-Aug-19 03:27N 41°29' W 071°19'0 0.0
2015-Aug-19 02:32N 41°29' W 071°19'0 0.0
2015-Aug-19 01:30N 41°29' W 071°19'0 0.0
2015-Aug-19 00:27N 41°29' W 071°19'0 0.0
2015-Aug-18 23:32N 41°29' W 071°19'0 0.0
2015-Aug-18 22:32N 41°29' W 071°19'0 0.1
2015-Aug-18 21:31N 41°29' W 071°19'0 0.8
2015-Aug-18 21:23N 41°29' W 071°19'1 1.3
2015-Aug-18 20:33N 41°29' W 071°20'10 9.7
2015-Aug-18 19:33N 41°21' W 071°27'1412.0
2015-Aug-18 18:22N 41°18' W 071°46'7 8.4
2015-Aug-18 17:33N 41°20' W 071°55'0 0.3
2015-Aug-18 17:24N 41°20' W 071°55'0 0.0
2015-Aug-18 16:33N 41°20' W 071°55'2113.8
2015-Aug-18 16:32N 41°19' W 071°52'  
Track history (hours):
 
Tides and Currents Weather Stations Pressure Air Temp Water Temp Dewpoint Dewpoint Depression Visibility Wind Speed Wind Dir Waves Ship Positions

Bella Vita

Last reported at 2015-Aug-28 16:26 UTC. Time now 2015-Aug-30 18:08 UTC.
Position N 41°23' W 070°55'.

Length 45 m; draft 2.5 m.

Type: Pleasure craft. MMSI: 319016600.

Date/timePositionNaut miles runAvg speedWind from/ knotsBaromVisibWave heightAir tempDewpointWater temp
2015-Aug-28 16:26N 41°23' W 070°55'1513.1
2015-Aug-28 15:20N 41°29' W 070°37'27 4.6
2015-Aug-28 09:30N 41°17' W 070°06'0 0.0
2015-Aug-28 08:33N 41°17' W 070°06'0 0.0
2015-Aug-27 11:29N 41°17' W 070°06'0 0.0
2015-Aug-27 10:29N 41°17' W 070°06'0 0.0
2015-Aug-27 09:29N 41°17' W 070°06'0 0.0
2015-Aug-27 08:17N 41°17' W 070°06'0 0.0
2015-Aug-27 07:32N 41°17' W 070°06'0 0.0
2015-Aug-27 06:29N 41°17' W 070°06'0 0.0
2015-Aug-27 05:32N 41°17' W 070°06'0 0.0
2015-Aug-27 04:17N 41°17' W 070°06'0 0.0
2015-Aug-27 03:32N 41°17' W 070°06'0 0.0
2015-Aug-27 02:23N 41°17' W 070°06'0 0.0
2015-Aug-27 00:20N 41°17' W 070°06'0 0.0
2015-Aug-26 23:32N 41°17' W 070°06'0 0.0
2015-Aug-26 22:32N 41°17' W 070°06'0 0.0
2015-Aug-26 20:29N 41°17' W 070°06'0 0.0
2015-Aug-26 19:32N 41°17' W 070°06'0 0.0
2015-Aug-26 18:32N 41°17' W 070°06'0 0.0
2015-Aug-26 17:29N 41°17' W 070°06'0 0.0
2015-Aug-26 16:32N 41°17' W 070°06'0 0.0
2015-Aug-26 15:29N 41°17' W 070°06'0 0.0
2015-Aug-26 14:26N 41°17' W 070°06'0 0.0
2015-Aug-26 01:23N 41°17' W 070°06'0 0.0
2015-Aug-26 00:14N 41°17' W 070°06'0 0.0
2015-Aug-25 23:20N 41°17' W 070°06'0 0.0
2015-Aug-25 22:32N 41°17' W 070°06'0 0.0
2015-Aug-25 21:32N 41°17' W 070°06'0 0.0
2015-Aug-25 20:29N 41°17' W 070°06'0 0.0
2015-Aug-25 19:05N 41°17' W 070°06'0 0.0
2015-Aug-25 18:11N 41°17' W 070°06'0 0.0
2015-Aug-25 17:32N 41°17' W 070°06'0 0.0
2015-Aug-25 16:29N 41°17' W 070°06'0 0.0
2015-Aug-25 15:32N 41°17' W 070°06'0 0.0
2015-Aug-25 14:32N 41°17' W 070°06'0 0.0
2015-Aug-25 13:29N 41°17' W 070°06'0 0.0
2015-Aug-25 12:32N 41°17' W 070°06'0 0.0
2015-Aug-25 11:32N 41°17' W 070°06'0 0.0
2015-Aug-25 10:32N 41°17' W 070°06'0 0.0
2015-Aug-25 09:26N 41°17' W 070°06'0 0.0
2015-Aug-25 08:32N 41°17' W 070°06'0 0.0
2015-Aug-25 04:23N 41°17' W 070°06'0 0.0
2015-Aug-25 03:32N 41°17' W 070°06'0 0.0
2015-Aug-25 02:32N 41°17' W 070°06'0 0.0
2015-Aug-25 01:32N 41°17' W 070°06'0 0.0
2015-Aug-25 00:26N 41°17' W 070°06'0 0.0
2015-Aug-24 23:29N 41°17' W 070°06'0 0.0
2015-Aug-24 22:29N 41°17' W 070°06'0 0.0
2015-Aug-24 21:32N 41°17' W 070°06'0 0.0
2015-Aug-24 20:05N 41°17' W 070°06'0 0.0
2015-Aug-24 17:08N 41°17' W 070°06'0 0.0
2015-Aug-23 18:08N 41°17' W 070°06'0 0.0
2015-Aug-23 17:29N 41°17' W 070°06'0 0.0
2015-Aug-23 12:32N 41°17' W 070°06'0 0.0
2015-Aug-23 09:14N 41°17' W 070°06'0 0.0
2015-Aug-23 08:29N 41°17' W 070°06'0 0.0
2015-Aug-23 07:23N 41°17' W 070°06'0 0.0
2015-Aug-21 08:32N 41°17' W 070°06'0 0.0
2015-Aug-21 05:08N 41°17' W 070°06'0 0.0
2015-Aug-21 04:32N 41°17' W 070°06'0 0.0
2015-Aug-21 03:32N 41°17' W 070°06'0 0.0
2015-Aug-21 02:32N 41°17' W 070°06'0 0.0
2015-Aug-21 01:32N 41°17' W 070°06'0 0.0
2015-Aug-21 00:26N 41°17' W 070°06'0 0.0
2015-Aug-20 23:11N 41°17' W 070°06'0 0.1
2015-Aug-20 22:27N 41°17' W 070°05'910.2
2015-Aug-20 21:33N 41°25' W 070°12'1211.5
2015-Aug-20 20:33N 41°26' W 070°27'3 3.4
2015-Aug-20 19:31N 41°23' W 070°30'0 0.0
2015-Aug-20 18:31N 41°23' W 070°30'0 0.0
2015-Aug-20 17:25N 41°23' W 070°30'0 0.0
2015-Aug-20 16:31N 41°23' W 070°30'0 0.0
2015-Aug-20 15:31N 41°23' W 070°30'0 0.0
2015-Aug-20 14:31N 41°23' W 070°30'0 0.0
2015-Aug-20 13:28N 41°23' W 070°30'38 1.2
2015-Aug-19 05:26N 41°29' W 071°19'0 0.0
2015-Aug-19 04:32N 41°29' W 071°19'0 0.0
2015-Aug-19 03:27N 41°29' W 071°19'0 0.0
2015-Aug-19 02:32N 41°29' W 071°19'0 0.0
2015-Aug-19 01:30N 41°29' W 071°19'0 0.0
2015-Aug-19 00:27N 41°29' W 071°19'0 0.0
2015-Aug-18 23:32N 41°29' W 071°19'0 0.0
2015-Aug-18 22:32N 41°29' W 071°19'0 0.1
2015-Aug-18 21:31N 41°29' W 071°19'0 0.8
2015-Aug-18 21:23N 41°29' W 071°19'1 1.3
2015-Aug-18 20:33N 41°29' W 071°20'10 9.7
2015-Aug-18 19:33N 41°21' W 071°27'1412.0
2015-Aug-18 18:22N 41°18' W 071°46'7 8.4
2015-Aug-18 17:33N 41°20' W 071°55'0 0.3
2015-Aug-18 17:24N 41°20' W 071°55'0 0.0
2015-Aug-18 16:33N 41°20' W 071°55'2113.8
2015-Aug-18 16:32N 41°19' W 071°52'  

Dump ship's entire track history